Time;durP1;ratioP1;P1;durP2;ratioP2;P2;SDS_P1;SDS_P2;PMS_P1;PMS_P2;Temp;Humidity;BMP_temperature;BMP_pressure;BME280_temperature;BME280_humidity;BME280_pressure;Samples;Min_cycle;Max_cycle;Signal;HPM_P1;HPM_P2
2022/06/30 00:00:14;;;;;;;;;1.75;1.75;;;;;21.49;38.78;100768.38;5019326;28;45555;-65
2022/06/30 00:02:40;;;;;;;;;4.00;1.50;;;;;21.48;38.78;100764.81;5019008;28;45430;-65
2022/06/30 00:05:06;;;;;;;;;0.00;0.00;;;;;21.47;39.03;100762.25;5018924;28;45269;-65
2022/06/30 00:07:32;;;;;;;;;2.00;2.00;;;;;21.50;38.76;100764.75;5018994;28;45723;-65
2022/06/30 00:09:57;;;;;;;;;0.25;0.25;;;;;21.49;38.94;100760.34;5019636;28;45336;-65
2022/06/30 00:12:23;;;;;;;;;0.00;0.00;;;;;21.45;38.43;100767.69;5019428;28;45441;-65
2022/06/30 00:14:48;;;;;;;;;0.00;0.00;;;;;21.38;39.01;100772.56;5019433;28;45307;-65
2022/06/30 00:17:13;;;;;;;;;0.00;0.00;;;;;21.30;39.20;100776.63;5019689;28;45337;-65
2022/06/30 00:19:39;;;;;;;;;0.25;0.25;;;;;21.20;38.91;100776.28;5019842;28;45258;-65
2022/06/30 00:22:06;;;;;;;;;0.00;0.00;;;;;21.10;39.37;100790.16;5023236;28;45359;-65
2022/06/30 00:24:32;;;;;;;;;0.00;0.00;;;;;20.97;39.49;100782.94;5022797;28;46074;-65
2022/06/30 00:26:58;;;;;;;;;1.00;1.00;;;;;20.90;39.84;100771.78;5022905;28;45373;-65
2022/06/30 00:29:23;;;;;;;;;0.00;0.00;;;;;20.82;39.41;100772.22;5023016;28;45240;-63
2022/06/30 00:31:49;;;;;;;;;0.00;0.00;;;;;20.77;40.10;100776.94;5022996;28;45170;-65
2022/06/30 00:34:14;;;;;;;;;0.00;0.00;;;;;20.65;39.89;100791.81;5022854;28;45867;-66
2022/06/30 00:36:39;;;;;;;;;0.50;0.50;;;;;20.56;40.42;100801.19;5022947;28;45348;-67
2022/06/30 00:39:05;;;;;;;;;2.00;0.25;;;;;20.48;40.01;100795.41;5022943;28;45318;-66
2022/06/30 00:41:30;;;;;;;;;0.00;0.00;;;;;20.39;40.14;100796.78;5020878;28;45489;-65
2022/06/30 00:43:55;;;;;;;;;0.00;0.00;;;;;20.30;40.51;100805.28;5022609;28;46045;-63
2022/06/30 00:46:21;;;;;;;;;1.00;1.00;;;;;20.22;40.89;100799.50;5022589;28;45387;-65
2022/06/30 00:48:46;;;;;;;;;1.00;1.00;;;;;20.21;41.09;100805.78;5022812;28;45392;-63
2022/06/30 00:51:12;;;;;;;;;0.50;0.00;;;;;20.17;40.83;100805.06;5022717;28;45474;-62
2022/06/30 00:53:41;;;;;;;;;0.00;0.00;;;;;20.09;41.07;100808.16;5022462;28;46082;-63
2022/06/30 00:56:08;;;;;;;;;0.75;0.25;;;;;20.04;41.34;100804.03;5022706;28;45220;-63
2022/06/30 00:58:41;;;;;;;;;1.00;1.00;;;;;20.00;41.81;100798.00;5022360;28;45386;-64
2022/06/30 01:01:08;;;;;;;;;1.50;0.50;;;;;19.93;41.38;100791.25;5022358;28;45410;-64
2022/06/30 01:03:34;;;;;;;;;1.00;1.00;;;;;19.91;41.36;100788.66;5022048;28;46354;-63
2022/06/30 01:06:04;;;;;;;;;0.00;0.00;;;;;19.90;41.76;100778.06;5022384;28;45283;-62
2022/06/30 01:08:31;;;;;;;;;0.00;0.00;;;;;19.87;41.66;100779.09;5021124;28;45472;-62
2022/06/30 01:13:42;;;;;;;;;0.50;0.50;;;;;19.80;41.03;100778.53;5022020;28;45409;-61
2022/06/30 01:16:07;;;;;;;;;2.50;0.00;;;;;19.81;41.07;100780.25;5021990;28;45283;-62
2022/06/30 01:18:34;;;;;;;;;0.75;0.50;;;;;19.79;40.61;100790.13;5022575;28;45170;-61
2022/06/30 01:21:00;;;;;;;;;1.75;1.00;;;;;19.75;40.99;100793.06;5022043;28;45524;-61
2022/06/30 01:23:25;;;;;;;;;0.00;0.00;;;;;19.72;41.08;100790.53;5022099;28;45371;-61
2022/06/30 01:25:51;;;;;;;;;0.00;0.00;;;;;19.66;41.04;100789.06;5021963;28;45353;-61
2022/06/30 01:28:17;;;;;;;;;2.00;0.25;;;;;19.63;41.71;100779.41;5022045;28;45418;-63
2022/06/30 01:30:43;;;;;;;;;1.00;0.25;;;;;19.62;41.16;100776.81;5021511;28;45327;-62
2022/06/30 01:33:09;;;;;;;;;2.00;0.75;;;;;19.62;41.35;100783.00;5022132;28;45694;-63
2022/06/30 01:35:34;;;;;;;;;1.00;0.00;;;;;19.56;41.25;100780.66;5020606;28;45336;-63
2022/06/30 01:38:00;;;;;;;;;0.75;0.75;;;;;19.56;41.60;100788.66;5020744;28;45295;-62
2022/06/30 01:40:28;;;;;;;;;0.75;0.75;;;;;19.48;41.57;100783.72;5020623;28;45403;-62
2022/06/30 01:42:54;;;;;;;;;1.00;1.00;;;;;19.49;41.65;100776.59;5010569;28;45374;-63
2022/06/30 01:45:20;;;;;;;;;1.00;1.00;;;;;19.48;41.62;100774.84;5020405;28;45437;-63
2022/06/30 01:47:46;;;;;;;;;1.00;1.00;;;;;19.44;41.60;100774.13;5021888;28;45352;-63
2022/06/30 01:50:17;;;;;;;;;0.25;0.00;;;;;19.43;41.79;100772.44;5021590;28;45416;-63
2022/06/30 01:52:43;;;;;;;;;1.25;0.50;;;;;19.42;41.96;100770.72;5020281;28;47184;-63
2022/06/30 01:55:09;;;;;;;;;1.00;1.00;;;;;19.34;41.69;100780.88;5021494;28;45264;-63
2022/06/30 01:57:35;;;;;;;;;0.00;0.00;;;;;19.34;41.73;100772.88;5021556;28;45324;-63
2022/06/30 02:00:02;;;;;;;;;0.25;0.25;;;;;19.35;42.00;100768.44;5021510;28;45395;-63
2022/06/30 02:02:28;;;;;;;;;1.00;0.25;;;;;19.31;42.00;100778.38;5020976;28;46100;-63
2022/06/30 02:04:53;;;;;;;;;0.00;0.00;;;;;19.31;41.92;100775.72;5021279;28;45270;-63
2022/06/30 02:07:21;;;;;;;;;1.00;1.00;;;;;19.33;42.00;100777.38;5021777;28;45299;-63
2022/06/30 02:09:50;;;;;;;;;1.00;1.00;;;;;19.32;42.15;100780.13;5021508;28;45241;-63
2022/06/30 02:15:01;;;;;;;;;1.50;0.00;;;;;19.28;42.37;100799.84;5021357;28;45315;-63
2022/06/30 02:17:26;;;;;;;;;2.25;2.00;;;;;19.27;42.29;100809.63;5021055;28;45252;-63
2022/06/30 02:19:51;;;;;;;;;1.50;1.50;;;;;19.21;41.81;100798.44;5021270;28;45352;-63
2022/06/30 02:22:17;;;;;;;;;1.00;1.00;;;;;19.20;42.83;100786.06;5021041;28;45282;-63
2022/06/30 02:24:42;;;;;;;;;1.50;0.50;;;;;19.14;42.61;100788.09;5021086;28;45267;-63
2022/06/30 02:27:07;;;;;;;;;4.00;2.00;;;;;19.13;42.57;100786.34;5021023;28;45314;-63
2022/06/30 02:29:33;;;;;;;;;1.50;1.50;;;;;19.13;42.85;100782.81;5021087;28;45261;-63
2022/06/30 02:31:58;;;;;;;;;2.00;2.00;;;;;19.11;42.56;100772.25;5036111;28;48053;-63
2022/06/30 02:34:23;;;;;;;;;3.00;1.00;;;;;19.11;42.83;100766.06;5020960;28;45392;-64
2022/06/30 02:36:49;;;;;;;;;2.00;2.00;;;;;19.08;43.05;100776.84;5019872;28;45340;-64
2022/06/30 02:39:15;;;;;;;;;2.50;1.00;;;;;19.08;42.74;100785.72;5020877;28;45177;-64
2022/06/30 02:41:40;;;;;;;;;1.00;1.00;;;;;19.07;42.83;100785.78;5009176;28;46069;-65
2022/06/30 02:44:05;;;;;;;;;1.75;1.75;;;;;19.08;43.06;100780.41;5018942;28;45309;-64
2022/06/30 02:46:31;;;;;;;;;1.00;1.00;;;;;19.04;42.96;100789.44;5020931;28;45313;-64
2022/06/30 02:48:56;;;;;;;;;1.75;1.75;;;;;19.08;43.14;100811.47;5020761;28;45394;-64
2022/06/30 02:51:22;;;;;;;;;1.00;1.00;;;;;19.09;43.28;100807.88;5020636;28;46242;-64
2022/06/30 02:53:47;;;;;;;;;2.00;2.00;;;;;19.10;43.30;100797.13;5020662;28;45426;-64
2022/06/30 02:56:13;;;;;;;;;3.00;2.00;;;;;19.14;43.01;100795.19;5020988;28;45326;-64
2022/06/30 02:58:39;;;;;;;;;1.50;1.50;;;;;19.16;42.97;100791.50;5020203;28;45240;-64
2022/06/30 03:01:04;;;;;;;;;1.25;1.25;;;;;19.15;42.88;100784.47;5020375;28;45569;-64
2022/06/30 03:03:29;;;;;;;;;2.75;1.50;;;;;19.19;43.06;100797.63;5020292;28;45450;-64
2022/06/30 03:05:55;;;;;;;;;2.25;2.00;;;;;19.20;43.09;100797.56;5020789;28;45304;-62
2022/06/30 03:08:20;;;;;;;;;2.00;2.00;;;;;19.23;42.92;100808.06;5020363;28;45312;-62
2022/06/30 03:10:46;;;;;;;;;2.25;2.00;;;;;19.25;42.96;100805.34;5020561;28;46220;-62
2022/06/30 03:13:11;;;;;;;;;2.50;2.50;;;;;19.27;43.12;100798.97;5020176;28;45395;-62
2022/06/30 03:15:37;;;;;;;;;2.00;2.00;;;;;19.26;43.40;100791.94;5020699;28;45370;-61
2022/06/30 03:18:02;;;;;;;;;3.00;1.50;;;;;19.25;43.41;100794.69;5020150;28;45303;-61
2022/06/30 03:20:27;;;;;;;;;1.75;1.75;;;;;19.21;43.46;100772.66;5020211;28;46086;-62
2022/06/30 03:22:53;;;;;;;;;1.25;1.00;;;;;19.25;43.49;100776.03;5019073;28;45345;-61
2022/06/30 03:25:18;;;;;;;;;2.00;2.00;;;;;19.24;43.42;100764.50;5020419;28;46447;-61
2022/06/30 03:27:43;;;;;;;;;3.25;2.00;;;;;19.26;43.46;100765.28;5020010;28;45277;-61
2022/06/30 03:30:09;;;;;;;;;4.00;2.00;;;;;19.25;43.44;100782.22;5020254;28;46565;-61
2022/06/30 03:32:35;;;;;;;;;4.75;1.75;;;;;19.26;43.68;100788.41;5019866;28;45228;-61
2022/06/30 03:35:01;;;;;;;;;2.25;2.00;;;;;19.27;43.39;100792.78;5020479;28;45218;-61
2022/06/30 03:37:26;;;;;;;;;1.25;1.25;;;;;19.29;43.71;100801.56;5019992;28;45637;-61
2022/06/30 03:39:51;;;;;;;;;3.00;3.00;;;;;19.29;43.72;100817.56;5019992;28;46015;-61
2022/06/30 03:42:17;;;;;;;;;3.00;1.75;;;;;19.27;43.79;100820.28;5006490;28;45224;-61
2022/06/30 03:44:42;;;;;;;;;1.50;1.25;;;;;19.28;43.83;100815.81;5020242;28;45481;-61
2022/06/30 03:47:08;;;;;;;;;1.75;1.75;;;;;19.27;43.96;100817.63;5019887;28;45247;-61
2022/06/30 03:49:34;;;;;;;;;1.00;1.00;;;;;19.26;43.64;100791.09;5019909;28;45411;-61
2022/06/30 03:51:59;;;;;;;;;4.25;2.00;;;;;19.24;44.06;100792.94;5019822;28;45337;-61
2022/06/30 03:54:24;;;;;;;;;3.00;2.00;;;;;19.24;44.23;100800.94;5035372;28;45336;-61
2022/06/30 03:56:50;;;;;;;;;1.50;1.50;;;;;19.22;43.92;100811.66;5023026;28;45466;-61
2022/06/30 03:59:15;;;;;;;;;3.00;1.00;;;;;19.24;44.18;100819.59;5023256;28;46159;-61
2022/06/30 04:01:41;;;;;;;;;3.75;2.75;;;;;19.24;43.95;100819.59;5023148;28;45339;-62
2022/06/30 04:04:06;;;;;;;;;5.00;2.00;;;;;19.25;43.80;100824.81;5023167;28;45290;-62
2022/06/30 04:06:32;;;;;;;;;2.25;2.25;;;;;19.28;43.91;100803.38;5023365;28;45263;-60
2022/06/30 04:08:57;;;;;;;;;3.00;2.75;;;;;19.30;43.81;100804.16;5023242;28;46067;-60
2022/06/30 04:11:22;;;;;;;;;4.00;2.75;;;;;19.31;44.05;100800.56;5022806;28;45327;-60
2022/06/30 04:13:48;;;;;;;;;2.00;2.00;;;;;19.30;43.80;100789.97;5023525;28;45308;-59
2022/06/30 04:16:13;;;;;;;;;1.75;1.50;;;;;19.33;43.78;100806.69;5022950;28;45459;-60
2022/06/30 04:18:39;;;;;;;;;5.50;4.75;;;;;19.33;43.84;100814.66;5023173;28;46161;-60
2022/06/30 04:21:04;;;;;;;;;17.50;14.75;;;;;19.33;44.04;100820.00;5022980;28;45192;-60
2022/06/30 04:23:29;;;;;;;;;4.25;3.50;;;;;19.32;44.40;100831.59;5023150;28;45357;-60
2022/06/30 04:25:55;;;;;;;;;2.75;2.75;;;;;19.35;43.98;100848.38;5022940;28;45294;-60
2022/06/30 04:28:20;;;;;;;;;3.00;3.00;;;;;19.33;44.32;100830.66;5022887;28;45317;-60
2022/06/30 04:33:29;;;;;;;;;4.00;3.00;;;;;19.27;44.51;100854.03;5023322;28;45221;-62
2022/06/30 04:35:54;;;;;;;;;2.00;2.00;;;;;19.24;44.78;100864.88;5022701;28;45313;-62
2022/06/30 04:38:20;;;;;;;;;3.00;3.00;;;;;19.22;44.63;100872.06;5023035;28;45341;-62
2022/06/30 04:43:29;;;;;;;;;1.00;1.00;;;;;19.15;44.54;100863.50;5016181;28;45431;-62
2022/06/30 04:45:54;;;;;;;;;3.25;3.00;;;;;19.12;44.46;100864.53;5022581;28;45229;-60
2022/06/30 04:48:20;;;;;;;;;5.25;2.75;;;;;19.09;44.42;100854.00;5022538;28;51594;-60
2022/06/30 04:50:45;;;;;;;;;6.50;4.00;;;;;19.06;44.34;100837.34;5022563;28;45205;-60
2022/06/30 04:53:11;;;;;;;;;4.75;3.00;;;;;19.07;44.69;100836.38;5022373;28;45242;-60
2022/06/30 04:55:37;;;;;;;;;4.50;3.50;;;;;19.05;44.63;100835.59;5020935;28;45626;-62
2022/06/30 04:58:02;;;;;;;;;4.50;4.00;;;;;19.04;44.76;100826.72;5037525;28;48348;-60
2022/06/30 05:00:28;;;;;;;;;3.00;3.00;;;;;19.03;44.85;100817.03;5022429;28;45170;-62
2022/06/30 05:02:53;;;;;;;;;4.00;4.00;;;;;19.04;44.78;100810.75;5022652;28;45235;-62
2022/06/30 05:05:19;;;;;;;;;4.25;3.00;;;;;19.03;44.70;100810.84;5037904;28;45640;-64
2022/06/30 05:07:44;;;;;;;;;2.50;2.00;;;;;19.06;45.19;100806.22;5022224;28;45347;-64
2022/06/30 05:10:10;;;;;;;;;3.00;3.00;;;;;19.07;45.37;100793.75;5022350;28;45379;-69
2022/06/30 05:12:35;;;;;;;;;5.50;3.00;;;;;19.06;45.21;100784.94;5014314;28;45706;-68
2022/06/30 05:15:01;;;;;;;;;3.00;3.00;;;;;18.97;44.96;100769.41;5010775;28;45458;-67
2022/06/30 05:17:27;;;;;;;;;3.75;3.75;;;;;19.04;45.23;100789.44;5021270;28;46166;-66
2022/06/30 05:19:52;;;;;;;;;3.00;3.00;;;;;19.04;45.27;100799.25;5021942;28;45245;-67
2022/06/30 05:22:18;;;;;;;;;6.00;4.25;;;;;19.05;45.40;100812.47;5017020;28;45352;-69
2022/06/30 05:27:27;;;;;;;;;4.75;4.75;;;;;19.07;45.57;100826.59;5021390;28;45311;-69
2022/06/30 05:29:52;;;;;;;;;4.00;4.00;;;;;19.05;45.54;100833.78;5012744;28;45331;-71
2022/06/30 05:32:17;;;;;;;;;4.75;4.00;;;;;19.05;45.55;100824.94;5021813;28;45214;-59
2022/06/30 05:34:43;;;;;;;;;5.75;4.00;;;;;19.05;45.38;100830.28;5021704;28;45327;-62
2022/06/30 05:37:08;;;;;;;;;5.00;2.50;;;;;19.01;45.74;100837.53;5021780;28;45981;-65
2022/06/30 05:39:33;;;;;;;;;4.00;4.00;;;;;18.95;45.59;100836.03;5021596;28;45453;-65
2022/06/30 05:42:00;;;;;;;;;4.75;1.00;;;;;18.91;46.05;100853.09;5021560;28;45268;-65
2022/06/30 05:44:27;;;;;;;;;3.75;3.00;;;;;18.84;45.86;100852.50;5021602;28;45359;-67
2022/06/30 05:46:53;;;;;;;;;7.00;4.75;;;;;18.82;46.05;100853.50;5012946;28;47267;-65
2022/06/30 05:49:19;;;;;;;;;3.25;3.25;;;;;18.76;46.10;100851.97;5019930;28;45399;-73
2022/06/30 05:51:44;;;;;;;;;2.25;2.25;;;;;18.73;46.39;100852.13;5021735;28;45171;-67
2022/06/30 05:54:09;;;;;;;;;5.00;4.00;;;;;18.64;46.61;100841.91;5020938;28;49366;-70
2022/06/30 05:56:35;;;;;;;;;3.00;3.00;;;;;18.68;46.40;100854.16;5021449;28;48218;-67
2022/06/30 05:59:00;;;;;;;;;3.00;3.00;;;;;18.67;46.06;100852.41;5020844;28;45221;-67
2022/06/30 06:01:25;;;;;;;;;6.25;4.75;;;;;18.61;46.81;100845.56;5021086;28;45299;-67
2022/06/30 06:03:51;;;;;;;;;3.00;3.00;;;;;18.63;46.54;100846.38;5017863;28;45586;-67
2022/06/30 06:06:16;;;;;;;;;3.00;3.00;;;;;18.59;46.61;100838.59;5021204;28;45483;-67
2022/06/30 06:08:41;;;;;;;;;3.25;2.00;;;;;18.57;46.63;100837.81;5021104;28;45456;-67
2022/06/30 06:11:07;;;;;;;;;3.00;3.00;;;;;18.55;46.50;100834.34;5021257;28;45373;-68
2022/06/30 06:13:32;;;;;;;;;5.00;4.00;;;;;18.55;46.83;100829.03;5020623;28;45299;-69
2022/06/30 06:15:57;;;;;;;;;2.75;2.75;;;;;18.51;46.69;100826.53;5020829;28;45666;-69
2022/06/30 06:18:23;;;;;;;;;8.25;5.00;;;;;18.56;46.85;100830.75;5019980;28;45240;-70
2022/06/30 06:20:48;;;;;;;;;2.75;2.75;;;;;18.56;46.87;100828.09;5015143;28;45276;-69
2022/06/30 06:23:13;;;;;;;;;3.25;3.25;;;;;18.57;46.71;100827.19;5020919;28;45517;-67
2022/06/30 06:25:39;;;;;;;;;4.00;3.00;;;;;18.56;46.65;100818.31;5020746;28;46283;-69
2022/06/30 06:30:48;;;;;;;;;5.25;3.25;;;;;18.65;46.77;100836.53;5017919;28;45305;-69
2022/06/30 06:33:13;;;;;;;;;7.00;4.50;;;;;18.55;47.00;100813.91;5020998;28;45581;-69
2022/06/30 06:35:38;;;;;;;;;4.00;4.00;;;;;18.69;47.03;100845.22;5020848;28;45446;-70
2022/06/30 06:38:04;;;;;;;;;6.25;5.00;;;;;18.70;46.95;100838.09;5020820;28;45257;-69
2022/06/30 06:40:30;;;;;;;;;3.00;3.00;;;;;18.66;46.87;100829.41;5020885;28;45340;-69
2022/06/30 06:42:56;;;;;;;;;5.00;4.50;;;;;18.75;46.82;100836.09;5020791;28;45222;-69
2022/06/30 06:45:21;;;;;;;;;4.00;4.00;;;;;18.71;47.13;100843.34;5020719;28;46109;-68
2022/06/30 06:47:47;;;;;;;;;7.25;5.25;;;;;18.75;47.17;100849.41;5020698;28;45379;-68
2022/06/30 06:50:12;;;;;;;;;6.50;6.50;;;;;18.75;47.04;100866.22;5020879;28;45248;-69
2022/06/30 06:52:38;;;;;;;;;7.50;3.75;;;;;18.75;47.37;100862.69;5020541;28;45517;-68
2022/06/30 06:55:04;;;;;;;;;4.00;3.50;;;;;18.74;47.24;100869.84;5020458;28;46317;-67
2022/06/30 06:57:37;;;;;;;;;6.00;4.00;;;;;18.73;47.17;100878.75;5020395;28;45233;-66
2022/06/30 07:00:07;;;;;;;;;6.25;4.25;;;;;18.73;47.16;100888.53;5020509;28;45161;-68
2022/06/30 07:02:33;;;;;;;;;6.50;6.50;;;;;18.69;47.26;100885.13;5020211;28;45541;-69
2022/06/30 07:04:59;;;;;;;;;3.00;3.00;;;;;18.64;47.45;100900.44;5020048;28;46284;-69
2022/06/30 07:07:25;;;;;;;;;4.75;4.00;;;;;18.57;47.68;100894.56;5020475;28;45273;-67
2022/06/30 07:09:50;;;;;;;;;4.00;4.00;;;;;18.52;47.50;100901.88;5020325;28;45297;-68
2022/06/30 07:12:15;;;;;;;;;3.25;3.25;;;;;18.49;47.94;100892.25;5019542;28;46649;-68
2022/06/30 07:14:41;;;;;;;;;6.50;6.00;;;;;18.41;47.84;100889.03;5010083;28;45435;-68
2022/06/30 07:17:07;;;;;;;;;7.00;5.25;;;;;18.37;47.76;100892.78;5017246;28;45258;-67
2022/06/30 07:19:32;;;;;;;;;6.25;6.25;;;;;18.34;48.24;100896.44;5020276;28;45719;-68
2022/06/30 07:21:58;;;;;;;;;5.75;5.75;;;;;18.31;48.31;100903.69;5020197;28;45245;-68
2022/06/30 07:24:23;;;;;;;;;24.50;24.50;;;;;18.26;48.44;100900.38;5020060;28;45439;-68
2022/06/30 07:26:49;;;;;;;;;68.00;52.75;;;;;18.26;48.59;100900.38;5019945;28;45176;-67
2022/06/30 07:29:15;;;;;;;;;48.25;41.75;;;;;18.21;48.44;100892.59;5020078;28;45161;-67
2022/06/30 07:31:40;;;;;;;;;10.25;10.00;;;;;18.17;48.70;100881.22;5020070;28;45362;-66
2022/06/30 07:34:05;;;;;;;;;14.75;14.75;;;;;18.15;48.64;100879.56;5019866;28;46031;-66
2022/06/30 07:36:31;;;;;;;;;7.75;7.75;;;;;18.12;48.68;100869.91;5020434;28;45422;-66
2022/06/30 07:38:56;;;;;;;;;8.00;4.50;;;;;18.08;49.02;100867.47;5020092;28;45315;-67
2022/06/30 07:41:23;;;;;;;;;6.25;5.50;;;;;18.05;48.76;100865.81;5019914;28;45326;-67
2022/06/30 07:43:48;;;;;;;;;6.50;6.50;;;;;18.08;48.70;100881.63;5019740;28;46157;-67
2022/06/30 07:46:14;;;;;;;;;6.00;6.00;;;;;18.05;48.83;100881.78;5020179;28;45298;-68
2022/06/30 07:48:40;;;;;;;;;4.50;4.00;;;;;18.05;49.00;100889.75;5020132;28;45490;-67
2022/06/30 07:51:06;;;;;;;;;7.25;7.25;;;;;18.06;49.07;100891.44;5020086;28;45509;-68
2022/06/30 07:53:32;;;;;;;;;5.75;5.75;;;;;18.06;48.88;100891.44;5019747;28;46161;-67
2022/06/30 07:55:57;;;;;;;;;6.00;5.25;;;;;18.03;49.38;100887.13;5019937;28;45197;-67
2022/06/30 07:58:23;;;;;;;;;5.50;5.50;;;;;18.03;49.27;100886.28;5018316;28;45365;-67
2022/06/30 08:00:48;;;;;;;;;6.00;6.00;;;;;17.98;49.20;100880.31;5018609;28;45173;-67
2022/06/30 08:03:13;;;;;;;;;5.25;5.00;;;;;18.02;49.36;100879.22;5019495;28;45238;-67
2022/06/30 08:05:39;;;;;;;;;1.00;1.00;;;;;17.99;49.14;100880.22;5019820;28;45227;-67
2022/06/30 08:08:04;;;;;;;;;4.75;3.00;;;;;17.98;49.32;100880.31;5020213;28;45304;-68
2022/06/30 08:10:30;;;;;;;;;2.50;2.50;;;;;17.91;49.16;100876.13;5034865;28;45517;-67
2022/06/30 08:12:55;;;;;;;;;4.00;3.00;;;;;17.87;49.05;100855.03;5019408;28;45356;-67
2022/06/30 08:15:20;;;;;;;;;2.00;1.00;;;;;17.90;48.95;100869.09;5019510;28;45295;-68
2022/06/30 08:17:46;;;;;;;;;2.75;2.75;;;;;17.87;48.97;100868.31;5019586;28;45291;-68
2022/06/30 08:20:11;;;;;;;;;1.00;1.00;;;;;17.82;48.73;100878.28;5019559;28;45623;-67
2022/06/30 08:22:36;;;;;;;;;5.75;4.00;;;;;17.76;48.59;100869.69;5019549;28;46569;-67
2022/06/30 08:25:03;;;;;;;;;5.00;4.25;;;;;17.74;48.90;100869.75;5009661;28;45260;-67
2022/06/30 08:27:28;;;;;;;;;3.25;3.25;;;;;17.69;48.91;100875.25;5019407;28;45474;-67
2022/06/30 08:29:53;;;;;;;;;2.50;2.00;;;;;17.63;49.15;100856.03;5019306;28;45252;-68
2022/06/30 08:32:19;;;;;;;;;3.50;2.25;;;;;17.67;48.96;100863.84;5019075;28;46121;-69
2022/06/30 08:34:44;;;;;;;;;3.75;3.75;;;;;17.64;49.01;100847.16;5019330;28;45320;-69
2022/06/30 08:37:09;;;;;;;;;4.00;4.00;;;;;17.63;48.86;100856.91;5019419;28;46004;-68
2022/06/30 08:42:21;;;;;;;;;4.50;3.00;;;;;17.61;49.09;100860.56;5021560;28;45697;-68
2022/06/30 08:47:32;;;;;;;;;4.75;4.00;;;;;17.53;49.46;100863.53;5022612;28;45300;-69
2022/06/30 08:49:58;;;;;;;;;3.25;3.25;;;;;17.49;49.13;100862.78;5022500;28;45558;-69
2022/06/30 08:52:25;;;;;;;;;3.25;3.25;;;;;17.41;49.50;100862.25;5022833;28;45271;-69
2022/06/30 08:54:51;;;;;;;;;4.00;3.75;;;;;17.40;49.51;100867.63;5022563;28;45363;-69
2022/06/30 08:57:18;;;;;;;;;5.50;3.00;;;;;17.39;49.92;100869.41;5022243;28;45300;-69
2022/06/30 08:59:43;;;;;;;;;3.00;3.00;;;;;17.36;49.64;100866.91;5022453;28;45242;-69
2022/06/30 09:02:09;;;;;;;;;7.50;5.00;;;;;17.28;49.76;100850.38;5021882;28;46032;-68
2022/06/30 09:04:35;;;;;;;;;3.75;2.00;;;;;17.31;50.31;100863.56;5022558;28;45350;-69
2022/06/30 09:07:01;;;;;;;;;3.50;3.50;;;;;17.26;50.00;100849.56;5022560;28;45443;-68
2022/06/30 09:09:26;;;;;;;;;5.25;4.00;;;;;17.31;49.99;100842.31;5022545;28;45331;-68
2022/06/30 09:11:57;;;;;;;;;6.25;5.00;;;;;17.31;49.96;100845.81;5021977;28;46129;-68
2022/06/30 09:14:32;;;;;;;;;5.00;4.50;;;;;17.29;50.05;100841.50;5022284;28;45284;-68
2022/06/30 09:16:58;;;;;;;;;5.00;4.00;;;;;17.33;49.84;100846.63;5021947;28;45467;-68
2022/06/30 09:19:23;;;;;;;;;6.25;3.75;;;;;17.36;49.98;100848.31;5022112;28;45306;-68
2022/06/30 09:22:03;;;;;;;;;5.00;4.75;;;;;17.39;50.05;100842.84;5020858;28;45468;-68
2022/06/30 09:24:29;;;;;;;;;3.75;2.75;;;;;17.39;49.80;100853.47;5012981;28;45183;-68
2022/06/30 09:27:16;;;;;;;;;3.00;2.25;;;;;17.45;49.89;100855.03;5022091;28;45356;-68
2022/06/30 09:29:49;;;;;;;;;4.00;3.25;;;;;17.45;50.36;100855.03;5021597;28;45454;-68
2022/06/30 09:32:15;;;;;;;;;5.00;5.00;;;;;17.48;50.19;100846.91;5021829;28;46112;-69
2022/06/30 09:34:41;;;;;;;;;5.75;4.25;;;;;17.50;49.96;100842.41;5021740;28;45336;-68
2022/06/30 09:37:23;;;;;;;;;4.25;4.00;;;;;17.52;50.18;100854.72;5022132;28;45354;-68
2022/06/30 09:39:51;;;;;;;;;4.25;4.25;;;;;17.52;50.21;100865.34;5021795;28;45174;-68
2022/06/30 09:42:36;;;;;;;;;7.75;6.75;;;;;17.55;50.36;100864.34;5021305;28;45679;-69
2022/06/30 09:45:01;;;;;;;;;4.00;4.00;;;;;17.56;50.39;100866.06;5021733;28;45486;-69
2022/06/30 09:47:27;;;;;;;;;4.00;4.00;;;;;17.54;50.59;100868.78;5021671;28;45369;-70
2022/06/30 09:49:52;;;;;;;;;8.75;5.75;;;;;17.55;50.38;100864.34;5021714;28;45526;-68
2022/06/30 09:52:25;;;;;;;;;5.75;5.75;;;;;17.54;50.91;100876.75;5021613;28;45416;-68
2022/06/30 09:54:54;;;;;;;;;5.00;5.00;;;;;17.54;50.86;100873.25;5037062;28;46406;-68
2022/06/30 09:57:21;;;;;;;;;31.25;26.50;;;;;17.54;50.60;100862.63;5036671;28;45433;-68
2022/06/30 10:00:00;;;;;;;;;62.50;47.00;;;;;17.54;50.46;100859.94;5021634;28;45359;-68
2022/06/30 10:02:30;;;;;;;;;10.25;9.00;;;;;17.58;50.62;100861.53;5020573;28;45419;-68
2022/06/30 10:04:57;;;;;;;;;6.00;5.75;;;;;17.63;50.33;100872.00;5021328;28;45284;-68
2022/06/30 10:07:23;;;;;;;;;7.50;6.50;;;;;17.65;50.58;100870.16;5021665;28;45288;-68
2022/06/30 10:09:51;;;;;;;;;6.00;4.75;;;;;17.70;50.45;100866.34;5020157;28;45822;-69
2022/06/30 10:12:21;;;;;;;;;4.50;4.00;;;;;17.76;50.38;100875.88;5020635;28;45418;-68
2022/06/30 10:14:49;;;;;;;;;4.25;4.25;;;;;17.78;50.36;100874.00;5021236;28;45506;-68
2022/06/30 10:17:28;;;;;;;;;5.00;3.75;;;;;17.84;50.49;100887.03;5021396;28;45383;-68
2022/06/30 10:19:55;;;;;;;;;3.00;3.00;;;;;17.86;50.35;100886.97;5021125;28;45456;-69
2022/06/30 10:22:22;;;;;;;;;4.50;4.50;;;;;17.86;50.53;100898.47;5036446;28;47177;-68
2022/06/30 10:24:49;;;;;;;;;5.50;5.00;;;;;17.90;50.67;100911.63;5011197;28;45226;-69
2022/06/30 10:27:16;;;;;;;;;6.25;4.00;;;;;17.86;50.04;100908.22;5021336;28;45327;-69
2022/06/30 10:29:56;;;;;;;;;4.00;4.00;;;;;17.85;50.54;100912.69;5020967;28;45398;-69
2022/06/30 10:32:30;;;;;;;;;4.25;4.00;;;;;17.84;50.63;100926.06;5019445;28;46724;-69
2022/06/30 10:35:18;;;;;;;;;2.00;1.50;;;;;17.80;50.48;100921.78;5036476;28;45873;-69
2022/06/30 10:38:14;;;;;;;;;4.25;2.75;;;;;17.75;50.65;100935.28;5021017;28;45234;-69
2022/06/30 10:41:02;;;;;;;;;4.00;4.00;;;;;17.69;50.20;100944.34;5020731;28;45403;-69
2022/06/30 10:43:28;;;;;;;;;3.75;3.00;;;;;17.63;50.44;100930.44;5020799;28;46132;-69
2022/06/30 10:45:53;;;;;;;;;2.25;1.50;;;;;17.59;50.52;100948.31;5019383;28;45325;-69
2022/06/30 10:48:19;;;;;;;;;2.75;2.00;;;;;17.56;50.60;100948.44;5021067;28;45475;-69
2022/06/30 10:50:45;;;;;;;;;3.50;2.00;;;;;17.51;50.42;100951.28;5020640;28;45334;-69
2022/06/30 10:53:15;;;;;;;;;3.25;2.75;;;;;17.48;50.52;100951.41;5020858;28;45173;-68
2022/06/30 10:55:43;;;;;;;;;4.50;4.50;;;;;17.41;50.47;100944.59;5020710;28;45366;-69
2022/06/30 10:58:10;;;;;;;;;7.00;7.00;;;;;17.41;50.72;100952.56;5020483;28;45383;-68
2022/06/30 11:00:50;;;;;;;;;5.50;5.50;;;;;17.40;50.79;100955.28;5020238;28;45229;-68
2022/06/30 11:03:38;;;;;;;;;5.75;4.00;;;;;17.35;50.52;100968.75;5020132;28;45348;-68
2022/06/30 11:06:09;;;;;;;;;4.50;4.50;;;;;17.31;50.93;100961.84;5020357;28;45431;-69
2022/06/30 11:08:47;;;;;;;;;7.25;6.50;;;;;17.32;50.69;100952.91;5020571;28;45574;-71
2022/06/30 11:11:22;;;;;;;;;3.25;3.25;;;;;17.34;50.58;100949.28;5020155;28;45358;-71
2022/06/30 11:14:10;;;;;;;;;4.25;4.25;;;;;17.36;50.81;100951.88;5020375;28;45358;-71
2022/06/30 11:16:37;;;;;;;;;6.25;5.00;;;;;17.37;50.71;100950.94;5019978;28;45332;-71
2022/06/30 11:19:04;;;;;;;;;7.25;4.00;;;;;17.37;50.78;100957.13;5020426;28;45301;-72
2022/06/30 11:21:31;;;;;;;;;3.25;2.75;;;;;17.42;50.92;100967.59;5020373;28;45418;-72
2022/06/30 11:24:02;;;;;;;;;5.25;4.00;;;;;17.45;50.73;100963.94;5011928;28;47082;-72
2022/06/30 11:29:17;;;;;;;;;4.75;2.50;;;;;17.49;50.54;100965.53;5020390;28;45526;-72
2022/06/30 11:31:43;;;;;;;;;5.00;2.00;;;;;17.52;50.72;100968.94;5035312;28;45581;-72
2022/06/30 11:34:12;;;;;;;;;4.25;1.25;;;;;17.50;50.75;100957.50;5019915;28;45359;-72
2022/06/30 11:36:39;;;;;;;;;4.25;2.00;;;;;17.55;50.78;100957.34;5020103;28;45364;-70
2022/06/30 11:39:06;;;;;;;;;3.50;2.00;;;;;17.58;50.47;100945.72;5020056;28;45382;-72
2022/06/30 11:44:18;;;;;;;;;3.00;2.00;;;;;17.59;50.66;100900.47;5018919;28;45341;-73
2022/06/30 11:46:46;;;;;;;;;1.75;1.75;;;;;17.63;50.92;100895.91;5019790;28;45386;-72
2022/06/30 11:49:12;;;;;;;;;23.00;20.25;;;;;17.69;50.62;100906.28;5018731;28;45183;-72